AFV102 FQMA-FQBR
Flight info
| Callsign | AFV102 |
|---|---|
| Flight time | 1h 11m |
| Altitude | 35000 |
| Route | UVAPU1A AXIVO UM310 ETLAM ETLAM1A |
| Aircraft | B738/M-SDE2E3FGHIRWXY/LB1 |
Departure
| Time | 2026-05-07 17:58 |
|---|---|
| Airport | Maputo Airport (FQMA) |
Arrival
| Time | 2026-05-07 19:09 |
|---|---|
| Airport | Beira International Airport (FQBR) |
| Time | Latitude | Longitude | Altitude | Speed | Heading |
|---|---|---|---|---|---|
| 2026-05-07 17:40 | -25.92336 | 32.57390 | 126 ft | 0 kts | 119° |
| 2026-05-07 17:53 | -25.92331 | 32.57380 | 125 ft | 2 kts | 118° |
| 2026-05-07 17:53 | -25.92324 | 32.57365 | 124 ft | 2 kts | 118° |
| 2026-05-07 17:53 | -25.92316 | 32.57349 | 127 ft | 2 kts | 118° |
| 2026-05-07 17:54 | -25.92308 | 32.57332 | 127 ft | 2 kts | 149° |
| 2026-05-07 17:54 | -25.92293 | 32.57335 | 125 ft | 2 kts | 206° |
| 2026-05-07 17:54 | -25.92290 | 32.57337 | 125 ft | 0 kts | 206° |
| 2026-05-07 17:55 | -25.92309 | 32.57326 | 128 ft | 11 kts | 206° |
| 2026-05-07 17:56 | -25.92397 | 32.57273 | 127 ft | 17 kts | 209° |
| 2026-05-07 17:56 | -25.92498 | 32.57210 | 124 ft | 15 kts | 209° |
| 2026-05-07 17:56 | -25.92514 | 32.57130 | 123 ft | 3 kts | 298° |
| 2026-05-07 17:56 | -25.92503 | 32.57109 | 122 ft | 3 kts | 300° |
| 2026-05-07 17:57 | -25.92485 | 32.57075 | 126 ft | 8 kts | 300° |
| 2026-05-07 17:57 | -25.92464 | 32.57041 | 127 ft | 8 kts | 321° |
| 2026-05-07 17:57 | -25.92379 | 32.57072 | 130 ft | 30 kts | 28° |
| 2026-05-07 17:57 | -25.91861 | 32.57389 | 132 ft | 136 kts | 29° |
| 2026-05-07 17:58 | -25.90869 | 32.58018 | 710 ft | 181 kts | 28° |
| 2026-05-07 17:58 | -25.89672 | 32.58754 | 1661 ft | 208 kts | 20° |
| 2026-05-07 17:58 | -25.88303 | 32.59254 | 2995 ft | 202 kts | 11° |
| 2026-05-07 17:58 | -25.87008 | 32.59674 | 4351 ft | 193 kts | 13° |
| 2026-05-07 17:59 | -25.85644 | 32.60156 | 4979 ft | 220 kts | 13° |
| 2026-05-07 17:59 | -25.84087 | 32.60723 | 5275 ft | 249 kts | 14° |
| 2026-05-07 17:59 | -25.82415 | 32.61349 | 5966 ft | 256 kts | 15° |
| 2026-05-07 17:59 | -25.80725 | 32.61992 | 6775 ft | 258 kts | 15° |
| 2026-05-07 18:00 | -25.79025 | 32.62644 | 7609 ft | 258 kts | 14° |
| 2026-05-07 18:00 | -25.77323 | 32.63299 | 8434 ft | 259 kts | 14° |
| 2026-05-07 18:00 | -25.75604 | 32.63961 | 9168 ft | 264 kts | 14° |
| 2026-05-07 18:00 | -25.73874 | 32.64629 | 9993 ft | 264 kts | 14° |
| 2026-05-07 18:01 | -25.72143 | 32.65297 | 10608 ft | 274 kts | 13° |
| 2026-05-07 18:01 | -25.70212 | 32.66033 | 10814 ft | 307 kts | 14° |
| 2026-05-07 18:01 | -25.68134 | 32.66829 | 11176 ft | 330 kts | 14° |
| 2026-05-07 18:01 | -25.65934 | 32.67680 | 11930 ft | 338 kts | 14° |
| 2026-05-07 18:02 | -25.61460 | 32.69419 | 13745 ft | 345 kts | 13° |
| 2026-05-07 18:02 | -25.59180 | 32.70302 | 14514 ft | 349 kts | 12° |
| 2026-05-07 18:02 | -25.56878 | 32.71193 | 15328 ft | 352 kts | 12° |
| 2026-05-07 18:03 | -25.54547 | 32.72094 | 16147 ft | 355 kts | 12° |
| 2026-05-07 18:03 | -25.52202 | 32.73000 | 16941 ft | 359 kts | 11° |
| 2026-05-07 18:03 | -25.49827 | 32.73916 | 17732 ft | 363 kts | 11° |
| 2026-05-07 18:03 | -25.47430 | 32.74840 | 18425 ft | 368 kts | 11° |
| 2026-05-07 18:04 | -25.44994 | 32.75777 | 19048 ft | 372 kts | 11° |
| 2026-05-07 18:04 | -25.42536 | 32.76712 | 19744 ft | 374 kts | 10° |
| 2026-05-07 18:04 | -25.40062 | 32.77611 | 20453 ft | 375 kts | 9° |
| 2026-05-07 18:04 | -25.37568 | 32.78498 | 21130 ft | 378 kts | 8° |
| 2026-05-07 18:05 | -25.35052 | 32.79387 | 21767 ft | 382 kts | 8° |
| 2026-05-07 18:05 | -25.32505 | 32.80289 | 22411 ft | 385 kts | 8° |
| 2026-05-07 18:05 | -25.29947 | 32.81198 | 23059 ft | 389 kts | 8° |
| 2026-05-07 18:05 | -25.27365 | 32.82118 | 23623 ft | 392 kts | 8° |
| 2026-05-07 18:06 | -25.24763 | 32.83047 | 24142 ft | 395 kts | 8° |
| 2026-05-07 18:06 | -25.22136 | 32.83986 | 24647 ft | 397 kts | 8° |
| 2026-05-07 18:06 | -25.19530 | 32.84918 | 25140 ft | 400 kts | 8° |
| 2026-05-07 18:06 | -25.16865 | 32.85869 | 25572 ft | 405 kts | 9° |
| 2026-05-07 18:07 | -25.14141 | 32.86842 | 26052 ft | 408 kts | 9° |
| 2026-05-07 18:07 | -25.11472 | 32.87796 | 26530 ft | 411 kts | 9° |
| 2026-05-07 18:07 | -25.08734 | 32.88774 | 27023 ft | 413 kts | 9° |
| 2026-05-07 18:07 | -25.05989 | 32.89752 | 27449 ft | 417 kts | 9° |
| 2026-05-07 18:08 | -25.03211 | 32.90742 | 27864 ft | 421 kts | 9° |
| 2026-05-07 18:08 | -25.00413 | 32.91740 | 28312 ft | 424 kts | 9° |
| 2026-05-07 18:08 | -24.97597 | 32.92743 | 28707 ft | 427 kts | 9° |
| 2026-05-07 18:08 | -24.94772 | 32.93751 | 29232 ft | 428 kts | 9° |
| 2026-05-07 18:09 | -24.91912 | 32.94768 | 29534 ft | 434 kts | 10° |
| 2026-05-07 18:09 | -24.89027 | 32.95793 | 29844 ft | 438 kts | 10° |
| 2026-05-07 18:09 | -24.86115 | 32.96828 | 30143 ft | 442 kts | 10° |
| 2026-05-07 18:09 | -24.83173 | 32.97873 | 30428 ft | 446 kts | 10° |
| 2026-05-07 18:10 | -24.80209 | 32.98927 | 30712 ft | 449 kts | 10° |
| 2026-05-07 18:10 | -24.77230 | 32.99985 | 30994 ft | 452 kts | 10° |
| 2026-05-07 18:10 | -24.74229 | 33.01051 | 31290 ft | 454 kts | 10° |
| 2026-05-07 18:10 | -24.71215 | 33.02121 | 31584 ft | 456 kts | 10° |
| 2026-05-07 18:11 | -24.68183 | 33.03197 | 31882 ft | 458 kts | 10° |
| 2026-05-07 18:11 | -24.66127 | 33.03926 | 32078 ft | 459 kts | 10° |
| 2026-05-07 18:11 | -24.62087 | 33.05358 | 32482 ft | 461 kts | 10° |
| 2026-05-07 18:11 | -24.59036 | 33.06438 | 32747 ft | 461 kts | 11° |
| 2026-05-07 18:12 | -24.55988 | 33.07554 | 33050 ft | 464 kts | 12° |
| 2026-05-07 18:12 | -24.52948 | 33.08770 | 33369 ft | 465 kts | 13° |
| 2026-05-07 18:12 | -24.49926 | 33.10028 | 33680 ft | 465 kts | 13° |
| 2026-05-07 18:12 | -24.46900 | 33.11301 | 33981 ft | 465 kts | 13° |
| 2026-05-07 18:13 | -24.43889 | 33.12564 | 34250 ft | 464 kts | 13° |
| 2026-05-07 18:13 | -24.40872 | 33.13819 | 34614 ft | 461 kts | 13° |
| 2026-05-07 18:13 | -24.37905 | 33.15048 | 34908 ft | 455 kts | 13° |
| 2026-05-07 18:14 | -24.32917 | 33.17086 | 34922 ft | 464 kts | 13° |
| 2026-05-07 18:14 | -24.26875 | 33.19547 | 34922 ft | 462 kts | 13° |
| 2026-05-07 18:15 | -24.20851 | 33.22003 | 34926 ft | 461 kts | 13° |
| 2026-05-07 18:15 | -24.14845 | 33.24449 | 34927 ft | 460 kts | 13° |
| 2026-05-07 18:16 | -24.08840 | 33.26892 | 34929 ft | 460 kts | 13° |
| 2026-05-07 18:16 | -24.02842 | 33.29329 | 34910 ft | 460 kts | 13° |
| 2026-05-07 18:17 | -23.96891 | 33.31746 | 34928 ft | 459 kts | 13° |
| 2026-05-07 18:17 | -23.90900 | 33.34176 | 34937 ft | 460 kts | 13° |
| 2026-05-07 18:18 | -23.84892 | 33.36610 | 34941 ft | 460 kts | 13° |
| 2026-05-07 18:18 | -23.78887 | 33.39041 | 34944 ft | 461 kts | 13° |
| 2026-05-07 18:19 | -23.72866 | 33.41476 | 34927 ft | 462 kts | 13° |
| 2026-05-07 18:19 | -23.66838 | 33.43912 | 34944 ft | 462 kts | 13° |
| 2026-05-07 18:20 | -23.60802 | 33.46349 | 34946 ft | 462 kts | 13° |
| 2026-05-07 18:20 | -23.54766 | 33.48784 | 34953 ft | 463 kts | 13° |
| 2026-05-07 18:21 | -23.48728 | 33.51221 | 34954 ft | 463 kts | 13° |
| 2026-05-07 18:21 | -23.42692 | 33.53671 | 34933 ft | 463 kts | 13° |
| 2026-05-07 18:22 | -23.36648 | 33.56122 | 34954 ft | 463 kts | 13° |
| 2026-05-07 18:22 | -23.30614 | 33.58565 | 34959 ft | 463 kts | 13° |
| 2026-05-07 18:23 | -23.24561 | 33.60942 | 34958 ft | 462 kts | 12° |
| 2026-05-07 18:23 | -23.18480 | 33.63194 | 34964 ft | 462 kts | 12° |
| 2026-05-07 18:24 | -23.12428 | 33.65429 | 34943 ft | 462 kts | 12° |
| 2026-05-07 18:24 | -23.06356 | 33.67687 | 34956 ft | 462 kts | 12° |
| 2026-05-07 18:25 | -23.00278 | 33.69955 | 34961 ft | 462 kts | 12° |
| 2026-05-07 18:25 | -22.94201 | 33.72221 | 34960 ft | 462 kts | 12° |
| 2026-05-07 18:26 | -22.88128 | 33.74484 | 34964 ft | 462 kts | 12° |
| 2026-05-07 18:26 | -22.82042 | 33.76748 | 34955 ft | 462 kts | 12° |
| 2026-05-07 18:27 | -22.75964 | 33.79007 | 34962 ft | 462 kts | 12° |
| 2026-05-07 18:27 | -22.69880 | 33.81267 | 34974 ft | 462 kts | 12° |
| 2026-05-07 18:28 | -22.63799 | 33.83523 | 34972 ft | 462 kts | 12° |
| 2026-05-07 18:28 | -22.57713 | 33.85780 | 34971 ft | 462 kts | 12° |
| 2026-05-07 18:29 | -22.51623 | 33.88035 | 34962 ft | 462 kts | 12° |
| 2026-05-07 18:29 | -22.45538 | 33.90281 | 34979 ft | 462 kts | 12° |
| 2026-05-07 18:30 | -22.39450 | 33.92521 | 34977 ft | 462 kts | 12° |
| 2026-05-07 18:30 | -22.33353 | 33.94763 | 34982 ft | 463 kts | 12° |
| 2026-05-07 18:31 | -22.27263 | 33.97003 | 34967 ft | 462 kts | 12° |
| 2026-05-07 18:31 | -22.21231 | 33.99219 | 34966 ft | 461 kts | 12° |
| 2026-05-07 18:32 | -22.15159 | 34.01447 | 34976 ft | 461 kts | 12° |
| 2026-05-07 18:32 | -22.09083 | 34.03657 | 34977 ft | 461 kts | 12° |
| 2026-05-07 18:33 | -22.03009 | 34.05843 | 34975 ft | 461 kts | 12° |
| 2026-05-07 18:33 | -21.96882 | 34.08048 | 34981 ft | 461 kts | 12° |
| 2026-05-07 18:34 | -21.90804 | 34.10237 | 34983 ft | 460 kts | 12° |
| 2026-05-07 18:34 | -21.86744 | 34.11699 | 34981 ft | 461 kts | 12° |
| 2026-05-07 18:35 | -21.80698 | 34.13875 | 34985 ft | 461 kts | 12° |
| 2026-05-07 18:35 | -21.74609 | 34.16064 | 34983 ft | 461 kts | 12° |
| 2026-05-07 18:35 | -21.71604 | 34.17147 | 34959 ft | 449 kts | 12° |
| 2026-05-07 18:36 | -21.68677 | 34.18205 | 34964 ft | 440 kts | 12° |
| 2026-05-07 18:36 | -21.65818 | 34.19237 | 34961 ft | 426 kts | 11° |
| 2026-05-07 18:36 | -21.63055 | 34.20234 | 34958 ft | 411 kts | 11° |
| 2026-05-07 18:36 | -21.60387 | 34.21196 | 34962 ft | 397 kts | 11° |
| 2026-05-07 18:37 | -21.57804 | 34.22124 | 34944 ft | 385 kts | 11° |
| 2026-05-07 18:37 | -21.52857 | 34.23894 | 34621 ft | 366 kts | 10° |
| 2026-05-07 18:37 | -21.50449 | 34.24753 | 34203 ft | 362 kts | 10° |
| 2026-05-07 18:38 | -21.48061 | 34.25601 | 33535 ft | 364 kts | 11° |
| 2026-05-07 18:38 | -21.45596 | 34.26470 | 32215 ft | 382 kts | 11° |
| 2026-05-07 18:38 | -21.43013 | 34.27379 | 30922 ft | 399 kts | 12° |
| 2026-05-07 18:38 | -21.40369 | 34.28322 | 30336 ft | 395 kts | 12° |
| 2026-05-07 18:39 | -21.37795 | 34.29250 | 29830 ft | 387 kts | 12° |
| 2026-05-07 18:39 | -21.35280 | 34.30158 | 29388 ft | 377 kts | 12° |
| 2026-05-07 18:39 | -21.32826 | 34.31042 | 28965 ft | 367 kts | 12° |
| 2026-05-07 18:39 | -21.30431 | 34.31901 | 28555 ft | 359 kts | 12° |
| 2026-05-07 18:40 | -21.28084 | 34.32740 | 28158 ft | 351 kts | 12° |
| 2026-05-07 18:40 | -21.25769 | 34.33564 | 27768 ft | 352 kts | 12° |
| 2026-05-07 18:40 | -21.23406 | 34.34399 | 27389 ft | 366 kts | 12° |
| 2026-05-07 18:40 | -21.20924 | 34.35272 | 26994 ft | 384 kts | 12° |
| 2026-05-07 18:41 | -21.18421 | 34.36163 | 26546 ft | 379 kts | 13° |
| 2026-05-07 18:41 | -21.15953 | 34.37049 | 26110 ft | 370 kts | 13° |
| 2026-05-07 18:41 | -21.13544 | 34.37914 | 25698 ft | 361 kts | 13° |
| 2026-05-07 18:41 | -21.11183 | 34.38758 | 25295 ft | 354 kts | 12° |
| 2026-05-07 18:42 | -21.08867 | 34.39583 | 24911 ft | 350 kts | 12° |
| 2026-05-07 18:42 | -21.06549 | 34.40405 | 24513 ft | 353 kts | 13° |
| 2026-05-07 18:42 | -21.04177 | 34.41244 | 24119 ft | 365 kts | 13° |
| 2026-05-07 18:42 | -21.01728 | 34.42112 | 23670 ft | 374 kts | 13° |
| 2026-05-07 18:43 | -20.99254 | 34.42993 | 23132 ft | 375 kts | 13° |
| 2026-05-07 18:43 | -20.96799 | 34.43896 | 22667 ft | 374 kts | 18° |
| 2026-05-07 18:43 | -20.94464 | 34.45153 | 22231 ft | 375 kts | 25° |
| 2026-05-07 18:43 | -20.92220 | 34.46572 | 21802 ft | 374 kts | 26° |
| 2026-05-07 18:44 | -20.90013 | 34.48019 | 21353 ft | 371 kts | 27° |
| 2026-05-07 18:44 | -20.87820 | 34.49457 | 20957 ft | 369 kts | 27° |
| 2026-05-07 18:44 | -20.85631 | 34.50878 | 20548 ft | 366 kts | 26° |
| 2026-05-07 18:44 | -20.83457 | 34.52273 | 20144 ft | 363 kts | 26° |
| 2026-05-07 18:45 | -20.81292 | 34.53650 | 19744 ft | 361 kts | 26° |
| 2026-05-07 18:45 | -20.79138 | 34.55012 | 19341 ft | 359 kts | 26° |
| 2026-05-07 18:45 | -20.76995 | 34.56361 | 18934 ft | 357 kts | 26° |
| 2026-05-07 18:45 | -20.74854 | 34.57706 | 18531 ft | 356 kts | 26° |
| 2026-05-07 18:46 | -20.72726 | 34.59040 | 18102 ft | 354 kts | 27° |
| 2026-05-07 18:46 | -20.70613 | 34.60366 | 17668 ft | 351 kts | 27° |
| 2026-05-07 18:46 | -20.68509 | 34.61685 | 17250 ft | 349 kts | 27° |
| 2026-05-07 18:46 | -20.66424 | 34.62991 | 16844 ft | 346 kts | 27° |
| 2026-05-07 18:47 | -20.64353 | 34.64288 | 16456 ft | 344 kts | 27° |
| 2026-05-07 18:47 | -20.62303 | 34.65572 | 16071 ft | 339 kts | 26° |
| 2026-05-07 18:47 | -20.60325 | 34.66813 | 15976 ft | 319 kts | 26° |
| 2026-05-07 18:47 | -20.58473 | 34.67977 | 15948 ft | 299 kts | 26° |
| 2026-05-07 18:48 | -20.56726 | 34.69073 | 15845 ft | 284 kts | 26° |
| 2026-05-07 18:48 | -20.55048 | 34.70124 | 15627 ft | 275 kts | 26° |
| 2026-05-07 18:48 | -20.53424 | 34.71138 | 15386 ft | 267 kts | 25° |
| 2026-05-07 18:48 | -20.51832 | 34.72131 | 15091 ft | 263 kts | 25° |
| 2026-05-07 18:49 | -20.50259 | 34.73112 | 14743 ft | 261 kts | 25° |
| 2026-05-07 18:49 | -20.48696 | 34.74085 | 14390 ft | 259 kts | 26° |
| 2026-05-07 18:49 | -20.47141 | 34.75054 | 14051 ft | 258 kts | 26° |
| 2026-05-07 18:49 | -20.45603 | 34.76013 | 13707 ft | 257 kts | 26° |
| 2026-05-07 18:50 | -20.44064 | 34.76972 | 13322 ft | 255 kts | 26° |
| 2026-05-07 18:50 | -20.42535 | 34.77925 | 12945 ft | 254 kts | 26° |
| 2026-05-07 18:50 | -20.41025 | 34.78902 | 12570 ft | 254 kts | 30° |
| 2026-05-07 18:50 | -20.39448 | 34.79661 | 12168 ft | 245 kts | 4° |
| 2026-05-07 18:51 | -20.37812 | 34.79490 | 11815 ft | 234 kts | 333° |
| 2026-05-07 18:51 | -20.36571 | 34.78466 | 11452 ft | 225 kts | 302° |
| 2026-05-07 18:51 | -20.36027 | 34.76934 | 11115 ft | 221 kts | 280° |
| 2026-05-07 18:51 | -20.35779 | 34.75321 | 10761 ft | 220 kts | 278° |
| 2026-05-07 18:52 | -20.35561 | 34.73731 | 10568 ft | 213 kts | 278° |
| 2026-05-07 18:52 | -20.35356 | 34.72195 | 10369 ft | 206 kts | 278° |
| 2026-05-07 18:52 | -20.35015 | 34.70750 | 10152 ft | 200 kts | 300° |
| 2026-05-07 18:52 | -20.34021 | 34.69784 | 9943 ft | 196 kts | 336° |
| 2026-05-07 18:53 | -20.32664 | 34.69686 | 9750 ft | 202 kts | 14° |
| 2026-05-07 18:53 | -20.31491 | 34.70509 | 9544 ft | 208 kts | 52° |
| 2026-05-07 18:53 | -20.30964 | 34.71947 | 9389 ft | 214 kts | 82° |
| 2026-05-07 18:53 | -20.30826 | 34.73543 | 9255 ft | 218 kts | 85° |
| 2026-05-07 18:54 | -20.30725 | 34.75152 | 9130 ft | 217 kts | 85° |
| 2026-05-07 18:54 | -20.30629 | 34.76752 | 8986 ft | 216 kts | 85° |
| 2026-05-07 18:54 | -20.30538 | 34.78324 | 8825 ft | 216 kts | 85° |
| 2026-05-07 18:54 | -20.30102 | 34.79829 | 8539 ft | 214 kts | 47° |
| 2026-05-07 18:55 | -20.28970 | 34.80772 | 8345 ft | 204 kts | 30° |
| 2026-05-07 18:55 | -20.27789 | 34.81570 | 8233 ft | 196 kts | 30° |
| 2026-05-07 18:55 | -20.26648 | 34.82361 | 8294 ft | 198 kts | 31° |
| 2026-05-07 18:55 | -20.25490 | 34.83187 | 8311 ft | 203 kts | 31° |
| 2026-05-07 18:56 | -20.24316 | 34.84047 | 8315 ft | 207 kts | 32° |
| 2026-05-07 18:56 | -20.23132 | 34.84936 | 8313 ft | 208 kts | 33° |
| 2026-05-07 18:56 | -20.21951 | 34.85837 | 8307 ft | 209 kts | 33° |
| 2026-05-07 18:56 | -20.20771 | 34.86750 | 8303 ft | 209 kts | 33° |
| 2026-05-07 18:57 | -20.19594 | 34.87669 | 8098 ft | 211 kts | 34° |
| 2026-05-07 18:57 | -20.18440 | 34.88579 | 7991 ft | 199 kts | 34° |
| 2026-05-07 18:57 | -20.17341 | 34.89449 | 8034 ft | 198 kts | 34° |
| 2026-05-07 18:57 | -20.16208 | 34.90347 | 7875 ft | 208 kts | 34° |
| 2026-05-07 18:58 | -20.15436 | 34.90960 | 7728 ft | 209 kts | 34° |
| 2026-05-07 18:58 | -20.14281 | 34.91882 | 7482 ft | 206 kts | 34° |
| 2026-05-07 18:58 | -20.12761 | 34.93097 | 7168 ft | 202 kts | 34° |
| 2026-05-07 18:58 | -20.12021 | 34.93690 | 7014 ft | 200 kts | 34° |
| 2026-05-07 18:59 | -20.10918 | 34.94573 | 6768 ft | 197 kts | 34° |
| 2026-05-07 18:59 | -20.09829 | 34.95446 | 6533 ft | 195 kts | 35° |
| 2026-05-07 18:59 | -20.08753 | 34.96308 | 6297 ft | 193 kts | 35° |
| 2026-05-07 18:59 | -20.07684 | 34.97165 | 6097 ft | 193 kts | 35° |
| 2026-05-07 19:00 | -20.06609 | 34.98026 | 6049 ft | 194 kts | 34° |
| 2026-05-07 19:00 | -20.05532 | 34.98890 | 6028 ft | 193 kts | 35° |
| 2026-05-07 19:00 | -20.04462 | 34.99748 | 6015 ft | 193 kts | 35° |
| 2026-05-07 19:00 | -20.03390 | 35.00607 | 6018 ft | 193 kts | 35° |
| 2026-05-07 19:01 | -20.02275 | 35.01500 | 5591 ft | 207 kts | 35° |
| 2026-05-07 19:01 | -20.01132 | 35.02417 | 5275 ft | 206 kts | 36° |
| 2026-05-07 19:01 | -19.99997 | 35.03327 | 5008 ft | 203 kts | 36° |
| 2026-05-07 19:01 | -19.98879 | 35.04224 | 4765 ft | 199 kts | 36° |
| 2026-05-07 19:02 | -19.97786 | 35.05099 | 4514 ft | 195 kts | 36° |
| 2026-05-07 19:02 | -19.96712 | 35.05959 | 4291 ft | 192 kts | 36° |
| 2026-05-07 19:02 | -19.95658 | 35.06803 | 4087 ft | 187 kts | 36° |
| 2026-05-07 19:02 | -19.94647 | 35.07612 | 3991 ft | 178 kts | 36° |
| 2026-05-07 19:03 | -19.93566 | 35.08225 | 3897 ft | 178 kts | 13° |
| 2026-05-07 19:03 | -19.92341 | 35.08534 | 3861 ft | 184 kts | 13° |
| 2026-05-07 19:03 | -19.91090 | 35.08875 | 3780 ft | 187 kts | 14° |
| 2026-05-07 19:03 | -19.89841 | 35.09221 | 3683 ft | 186 kts | 14° |
| 2026-05-07 19:04 | -19.88605 | 35.09565 | 3596 ft | 182 kts | 14° |
| 2026-05-07 19:04 | -19.87374 | 35.09909 | 3526 ft | 183 kts | 14° |
| 2026-05-07 19:04 | -19.86138 | 35.10233 | 3440 ft | 183 kts | 6° |
| 2026-05-07 19:04 | -19.84936 | 35.09944 | 3345 ft | 178 kts | 324° |
| 2026-05-07 19:05 | -19.84239 | 35.08912 | 3189 ft | 172 kts | 288° |
| 2026-05-07 19:05 | -19.83937 | 35.07692 | 3097 ft | 171 kts | 285° |
| 2026-05-07 19:05 | -19.83629 | 35.06483 | 3008 ft | 170 kts | 285° |
| 2026-05-07 19:05 | -19.83317 | 35.05255 | 2791 ft | 173 kts | 284° |
| 2026-05-07 19:06 | -19.83005 | 35.04023 | 2557 ft | 173 kts | 283° |
| 2026-05-07 19:06 | -19.82399 | 35.01636 | 2097 ft | 160 kts | 283° |
| 2026-05-07 19:06 | -19.82116 | 35.00521 | 1849 ft | 152 kts | 282° |
| 2026-05-07 19:07 | -19.81846 | 34.99455 | 1642 ft | 148 kts | 281° |
| 2026-05-07 19:07 | -19.81581 | 34.98404 | 1431 ft | 147 kts | 282° |
| 2026-05-07 19:07 | -19.81315 | 34.97360 | 1223 ft | 147 kts | 283° |
| 2026-05-07 19:07 | -19.81037 | 34.96306 | 977 ft | 150 kts | 283° |
| 2026-05-07 19:08 | -19.80768 | 34.95240 | 786 ft | 150 kts | 283° |
| 2026-05-07 19:08 | -19.80505 | 34.94173 | 556 ft | 147 kts | 284° |
| 2026-05-07 19:08 | -19.80245 | 34.93153 | 322 ft | 141 kts | 284° |
| 2026-05-07 19:08 | -19.79992 | 34.92163 | 133 ft | 135 kts | 284° |
| 2026-05-07 19:09 | -19.79765 | 34.91257 | 46 ft | 106 kts | 285° |
| 2026-05-07 19:09 | -19.79654 | 34.90815 | 43 ft | 48 kts | 285° |
| 2026-05-07 19:09 | -19.79586 | 34.90549 | 41 ft | 17 kts | 284° |
| 2026-05-07 19:09 | -19.79643 | 34.90461 | 42 ft | 17 kts | 191° |
| 2026-05-07 19:10 | -19.79753 | 34.90428 | 43 ft | 16 kts | 202° |
| 2026-05-07 19:10 | -19.79783 | 34.90332 | 43 ft | 7 kts | 285° |
| 2026-05-07 19:10 | -19.79807 | 34.90294 | 43 ft | 7 kts | 195° |
| 2026-05-07 19:10 | -19.79816 | 34.90291 | 43 ft | 2 kts | 199° |
| 2026-05-07 19:11 | -19.79818 | 34.90290 | 43 ft | 0 kts | 199° |